createdAt,value
2023-01-26T00:00:20.414Z,15.98
2023-01-26T00:02:47.440Z,15.23
2023-01-26T00:05:14.549Z,19.55
2023-01-26T00:07:45.424Z,21.25
2023-01-26T00:10:13.124Z,18.95
2023-01-26T00:12:40.183Z,15.75
2023-01-26T00:15:07.848Z,19.38
2023-01-26T00:17:34.888Z,16.42
2023-01-26T00:20:01.936Z,15.73
2023-01-26T00:22:28.984Z,15.02
2023-01-26T00:24:56.144Z,13.20
2023-01-26T00:27:23.231Z,14.25
2023-01-26T00:29:50.249Z,14.60
2023-01-26T00:32:17.311Z,13.82
2023-01-26T00:34:44.987Z,13.52
2023-01-26T00:37:12.147Z,14.88
2023-01-26T00:39:39.170Z,14.93
2023-01-26T00:42:13.865Z,15.85
2023-01-26T00:44:42.935Z,14.80
2023-01-26T00:47:11.809Z,14.60
2023-01-26T00:49:39.242Z,14.40
2023-01-26T00:52:12.208Z,13.25
2023-01-26T00:54:39.857Z,13.57
2023-01-26T00:57:06.984Z,13.45
2023-01-26T00:59:35.748Z,12.73
2023-01-26T01:02:02.953Z,12.82
2023-01-26T01:04:30.819Z,13.20
2023-01-26T01:07:00.679Z,12.90
2023-01-26T01:09:27.713Z,12.35
2023-01-26T01:11:54.807Z,13.20
2023-01-26T01:14:21.861Z,12.13
2023-01-26T01:16:48.977Z,12.85
2023-01-26T01:19:18.336Z,13.00
2023-01-26T01:24:14.367Z,11.93
2023-01-26T01:26:41.484Z,11.40
2023-01-26T01:29:13.312Z,11.77
2023-01-26T01:31:41.892Z,12.43
2023-01-26T01:36:36.698Z,11.07
2023-01-26T01:39:03.849Z,10.38
2023-01-26T01:41:30.912Z,10.90
2023-01-26T01:44:18.955Z,9.90
2023-01-26T01:46:56.717Z,11.52
2023-01-26T01:49:36.970Z,9.55
2023-01-26T01:52:21.818Z,9.45
2023-01-26T01:54:54.457Z,9.13
2023-01-26T01:57:29.644Z,9.48
2023-01-26T02:00:08.356Z,10.00
2023-01-26T02:03:21.090Z,10.35
2023-01-26T02:05:54.304Z,9.35
2023-01-26T02:08:27.675Z,9.75
2023-01-26T02:10:59.735Z,11.20
2023-01-26T02:13:28.416Z,10.48
2023-01-26T02:15:56.402Z,10.65
2023-01-26T02:18:23.444Z,10.55
2023-01-26T02:21:01.666Z,10.32
2023-01-26T02:23:43.843Z,9.85
2023-01-26T02:26:17.343Z,8.93
2023-01-26T02:28:46.071Z,10.80
2023-01-26T02:31:14.391Z,10.52
2023-01-26T02:33:43.099Z,9.15
2023-01-26T02:36:23.212Z,9.07
2023-01-26T02:39:16.076Z,9.95
2023-01-26T02:42:02.224Z,9.80
2023-01-26T02:44:30.640Z,8.20
2023-01-26T02:46:57.658Z,6.63
2023-01-26T02:49:43.257Z,9.90
2023-01-26T02:52:15.806Z,10.93
2023-01-26T02:55:04.242Z,10.25
2023-01-26T02:57:34.560Z,10.85
2023-01-26T03:00:02.167Z,10.90
2023-01-26T03:02:31.174Z,11.38
2023-01-26T03:04:58.545Z,10.50
2023-01-26T03:07:26.940Z,9.77
2023-01-26T03:09:54.121Z,11.80
2023-01-26T03:12:21.220Z,11.63
2023-01-26T03:15:08.222Z,12.10
2023-01-26T03:17:35.262Z,12.75
2023-01-26T03:20:23.424Z,13.05
2023-01-26T03:23:09.491Z,12.00
2023-01-26T03:25:56.272Z,13.52
2023-01-26T03:28:23.437Z,11.77
2023-01-26T03:30:51.225Z,12.80
2023-01-26T03:33:19.338Z,10.82
2023-01-26T03:35:47.400Z,14.52
2023-01-26T03:38:14.684Z,13.15
2023-01-26T03:41:05.471Z,12.40
2023-01-26T03:43:50.921Z,12.93
2023-01-26T03:46:36.667Z,13.50
2023-01-26T03:49:23.447Z,13.30
2023-01-26T03:52:12.408Z,15.48
2023-01-26T03:54:57.815Z,15.10
2023-01-26T03:57:25.130Z,15.15
2023-01-26T03:59:55.303Z,14.50
2023-01-26T04:02:42.293Z,13.38
2023-01-26T04:05:29.854Z,14.07
2023-01-26T04:08:22.370Z,12.70
2023-01-26T04:10:54.232Z,11.32
2023-01-26T04:13:41.975Z,12.02
2023-01-26T04:16:31.404Z,12.30
2023-01-26T04:19:16.982Z,11.77
2023-01-26T04:21:43.972Z,11.52
2023-01-26T04:24:17.526Z,11.68
2023-01-26T04:26:46.127Z,10.30
2023-01-26T04:29:17.715Z,11.65
2023-01-26T04:31:46.467Z,12.13
2023-01-26T04:34:17.115Z,10.15
2023-01-26T04:36:44.293Z,10.20
2023-01-26T04:39:11.507Z,11.55
2023-01-26T04:41:44.125Z,12.27
2023-01-26T04:44:14.103Z,10.80
2023-01-26T04:46:41.467Z,10.85
2023-01-26T04:49:10.379Z,11.60
2023-01-26T04:51:37.376Z,11.27
2023-01-26T04:54:04.549Z,10.27
2023-01-26T04:56:35.383Z,11.50
2023-01-26T04:59:05.995Z,12.98
2023-01-26T05:01:34.466Z,13.00
2023-01-26T05:04:04.810Z,8.68
2023-01-26T05:06:32.936Z,9.57
2023-01-26T05:08:59.980Z,9.65
2023-01-26T05:11:28.141Z,11.73
2023-01-26T05:14:21.007Z,10.48
2023-01-26T05:17:10.868Z,11.20
2023-01-26T05:19:40.788Z,12.73
2023-01-26T05:22:16.754Z,10.43
2023-01-26T05:25:04.190Z,10.88
2023-01-26T05:27:39.287Z,10.45
2023-01-26T05:30:06.732Z,11.25
2023-01-26T05:35:03.282Z,11.23
2023-01-26T05:37:32.466Z,12.00
2023-01-26T05:40:00.586Z,12.32
2023-01-26T05:42:28.294Z,11.40
2023-01-26T05:45:22.137Z,12.88
2023-01-26T05:47:51.779Z,11.73
2023-01-26T05:50:19.834Z,11.25
2023-01-26T05:53:06.815Z,12.05
2023-01-26T05:58:03.180Z,13.10
2023-01-26T06:00:30.340Z,11.00
2023-01-26T06:03:05.250Z,11.45
2023-01-26T06:05:32.255Z,10.30
2023-01-26T06:08:01.532Z,12.95
2023-01-26T06:10:37.970Z,12.85
2023-01-26T06:13:17.068Z,11.20
2023-01-26T06:16:02.468Z,10.90
2023-01-26T06:18:30.727Z,10.13
2023-01-26T06:23:28.454Z,11.07
2023-01-26T06:26:01.887Z,10.70
2023-01-26T06:28:31.060Z,10.30
2023-01-26T06:31:02.628Z,10.35
2023-01-26T06:33:31.896Z,10.00
2023-01-26T06:36:06.333Z,9.98
2023-01-26T06:38:33.639Z,10.13
2023-01-26T06:41:03.242Z,9.93
2023-01-26T06:43:32.618Z,9.10
2023-01-26T06:46:01.628Z,8.88
2023-01-26T06:48:32.357Z,8.95
2023-01-26T06:51:20.237Z,9.23
2023-01-26T06:53:52.015Z,10.93
2023-01-26T06:56:32.986Z,9.15
2023-01-26T06:59:20.538Z,9.45
2023-01-26T07:02:10.840Z,9.75
2023-01-26T07:04:37.803Z,10.13
2023-01-26T07:07:04.790Z,10.27
2023-01-26T07:09:31.794Z,9.55
2023-01-26T07:11:58.728Z,10.20
2023-01-26T07:14:25.739Z,10.80
2023-01-26T07:16:52.805Z,10.60
2023-01-26T07:19:19.980Z,10.35
2023-01-26T07:21:46.940Z,11.05
2023-01-26T07:24:14.003Z,8.88
2023-01-26T07:26:41.068Z,11.30
2023-01-26T07:29:08.159Z,13.75
2023-01-26T07:31:35.190Z,10.25
2023-01-26T07:34:02.284Z,11.98
2023-01-26T07:36:29.441Z,11.77
2023-01-26T07:38:56.871Z,10.68
2023-01-26T07:41:23.827Z,10.15
2023-01-26T07:43:52.117Z,9.50
2023-01-26T07:46:19.552Z,10.32
2023-01-26T07:48:46.625Z,9.65
2023-01-26T07:51:13.670Z,9.00
2023-01-26T07:53:42.363Z,9.90
2023-01-26T07:56:17.113Z,9.48
2023-01-26T07:58:44.138Z,8.50
2023-01-26T08:01:15.389Z,9.80
2023-01-26T08:04:39.427Z,10.07
2023-01-26T08:07:06.427Z,9.10
2023-01-26T08:09:33.579Z,9.55
2023-01-26T08:12:00.697Z,9.82
2023-01-26T08:14:38.126Z,9.35
2023-01-26T08:17:08.790Z,8.73
2023-01-26T08:19:35.860Z,9.57
2023-01-26T08:22:02.850Z,8.85
2023-01-26T08:24:29.868Z,9.90
2023-01-26T08:26:56.857Z,8.55
2023-01-26T08:29:23.894Z,9.68
2023-01-26T08:31:50.999Z,8.73
2023-01-26T08:34:18.103Z,9.55
2023-01-26T08:36:45.247Z,10.45
2023-01-26T08:39:12.258Z,8.98
2023-01-26T08:41:40.055Z,10.15
2023-01-26T08:44:07.551Z,11.00
2023-01-26T08:46:34.492Z,9.88
2023-01-26T08:49:01.582Z,9.52
2023-01-26T08:51:28.931Z,9.45
2023-01-26T08:53:56.022Z,9.40
2023-01-26T08:56:23.012Z,9.48
2023-01-26T08:58:49.990Z,9.73
2023-01-26T09:01:17.807Z,10.02
2023-01-26T09:03:45.300Z,9.25
2023-01-26T09:06:14.811Z,9.30
2023-01-26T09:08:42.232Z,9.07
2023-01-26T09:11:09.380Z,9.07
2023-01-26T09:13:39.056Z,8.38
2023-01-26T09:16:08.072Z,8.60
2023-01-26T09:18:35.387Z,7.50
2023-01-26T09:21:06.674Z,8.07
2023-01-26T09:23:35.091Z,6.85
2023-01-26T09:26:03.383Z,8.32
2023-01-26T09:28:30.681Z,8.00
2023-01-26T09:30:58.083Z,7.60
2023-01-26T09:33:26.918Z,7.75
2023-01-26T09:35:54.143Z,8.45
2023-01-26T09:38:21.206Z,8.23
2023-01-26T09:41:22.761Z,7.30
2023-01-26T09:44:00.258Z,7.93
2023-01-26T09:46:57.167Z,8.38
2023-01-26T09:49:50.115Z,8.02
2023-01-26T09:52:29.866Z,7.32
2023-01-26T09:55:00.363Z,7.13
2023-01-26T09:57:55.741Z,8.93
2023-01-26T10:00:40.253Z,7.32
2023-01-26T10:03:11.091Z,7.90
2023-01-26T10:05:41.353Z,7.72
2023-01-26T10:08:13.932Z,7.65
2023-01-26T10:10:53.087Z,7.65
2023-01-26T10:13:21.720Z,8.02
2023-01-26T10:15:57.979Z,8.07
2023-01-26T10:18:30.971Z,6.88
2023-01-26T10:21:01.548Z,8.55
2023-01-26T10:23:33.626Z,7.70
2023-01-26T10:26:19.349Z,7.43
2023-01-26T10:28:51.946Z,7.35
2023-01-26T10:31:21.217Z,7.47
2023-01-26T10:36:22.616Z,7.30
2023-01-26T10:38:51.602Z,7.80
2023-01-26T10:41:29.629Z,7.90
2023-01-26T10:44:00.442Z,8.38
2023-01-26T10:46:29.434Z,8.05
2023-01-26T10:48:59.095Z,8.70
2023-01-26T10:51:34.007Z,8.13
2023-01-26T10:54:22.717Z,8.95
2023-01-26T10:57:20.469Z,8.93
2023-01-26T11:00:08.616Z,8.27
2023-01-26T11:02:37.162Z,6.37
2023-01-26T11:05:07.497Z,8.00
2023-01-26T11:07:41.603Z,7.75
2023-01-26T11:10:30.086Z,8.25
2023-01-26T11:13:26.951Z,8.40
2023-01-26T11:16:16.847Z,9.25
2023-01-26T11:19:02.817Z,8.80
2023-01-26T11:21:37.221Z,8.35
2023-01-26T11:24:34.081Z,9.65
2023-01-26T11:27:28.205Z,11.32
2023-01-26T11:30:01.015Z,11.32
2023-01-26T11:32:33.329Z,10.10
2023-01-26T11:35:09.260Z,10.07
2023-01-26T11:37:54.155Z,10.60
2023-01-26T11:40:42.778Z,11.02
2023-01-26T11:43:40.885Z,12.05
2023-01-26T11:46:14.681Z,10.13
2023-01-26T11:48:50.567Z,10.27
2023-01-26T11:51:30.093Z,9.25
2023-01-26T11:54:29.858Z,10.07
2023-01-26T11:57:21.396Z,10.40
2023-01-26T12:00:28.582Z,11.60
2023-01-26T12:03:04.262Z,10.25
2023-01-26T12:05:41.372Z,10.68
2023-01-26T12:08:29.429Z,10.25
2023-01-26T12:11:25.755Z,10.68
2023-01-26T12:14:49.412Z,10.07
2023-01-26T12:17:36.604Z,10.13
2023-01-26T12:20:47.994Z,9.88
2023-01-26T12:23:25.728Z,9.88
2023-01-26T12:26:02.765Z,9.55
2023-01-26T12:28:38.310Z,12.02
2023-01-26T12:31:15.874Z,12.18
2023-01-26T12:33:43.085Z,11.90
2023-01-26T12:36:48.428Z,10.93
2023-01-26T12:39:53.414Z,12.10
2023-01-26T12:42:37.386Z,11.90
2023-01-26T12:45:09.832Z,12.00
2023-01-26T12:47:46.022Z,12.45
2023-01-26T12:50:39.984Z,11.80
2023-01-26T12:53:18.555Z,12.63
2023-01-26T12:55:56.662Z,9.15
2023-01-26T12:58:33.061Z,10.40
2023-01-26T13:01:19.014Z,10.90
2023-01-26T13:03:54.168Z,10.35
2023-01-26T13:06:24.720Z,11.52
2023-01-26T13:08:57.762Z,11.07
2023-01-26T13:11:59.235Z,12.18
2023-01-26T13:14:37.531Z,10.13
2023-01-26T13:17:16.819Z,8.70
2023-01-26T13:22:25.669Z,11.90
2023-01-26T13:25:12.859Z,11.93
2023-01-26T13:27:40.084Z,13.23
2023-01-26T13:30:32.663Z,12.55
2023-01-26T13:33:13.542Z,12.52
2023-01-26T13:35:41.502Z,11.52
2023-01-26T13:38:29.358Z,11.48
2023-01-26T13:40:56.488Z,12.68
2023-01-26T13:43:38.193Z,13.50
2023-01-26T13:46:20.315Z,11.70
2023-01-26T13:48:48.623Z,12.27
2023-01-26T13:51:31.081Z,11.30
2023-01-26T13:54:01.615Z,11.30
2023-01-26T13:56:35.350Z,12.07
2023-01-26T13:59:12.202Z,10.60
2023-01-26T14:01:49.448Z,14.57
2023-01-26T14:04:35.112Z,12.50
2023-01-26T14:07:06.813Z,13.02
2023-01-26T14:09:43.167Z,13.25
2023-01-26T14:12:24.005Z,12.25
2023-01-26T14:14:54.590Z,15.18
2023-01-26T14:17:49.315Z,16.52
2023-01-26T14:20:32.222Z,12.70
2023-01-26T14:23:19.063Z,12.77
2023-01-26T14:26:19.000Z,10.73
2023-01-26T14:28:46.525Z,11.40
2023-01-26T14:31:20.248Z,12.63
2023-01-26T14:33:53.342Z,11.80
2023-01-26T14:36:21.485Z,12.57
2023-01-26T14:38:51.676Z,11.70
2023-01-26T14:41:24.778Z,11.90
2023-01-26T14:43:57.066Z,11.23
2023-01-26T14:46:51.304Z,11.70
2023-01-26T14:49:30.559Z,11.45
2023-01-26T14:51:58.740Z,11.73
2023-01-26T14:54:29.666Z,12.27
2023-01-26T14:56:58.439Z,12.25
2023-01-26T14:59:39.933Z,11.73
2023-01-26T15:02:28.424Z,19.88
2023-01-26T15:04:58.973Z,17.77
2023-01-26T15:07:34.625Z,15.18
2023-01-26T15:10:03.310Z,12.55
2023-01-26T15:12:34.733Z,13.32
2023-01-26T15:15:02.173Z,13.13
2023-01-26T15:17:39.181Z,12.23
2023-01-26T15:20:15.055Z,11.05
2023-01-26T15:22:48.941Z,12.43
2023-01-26T15:25:23.568Z,11.88
2023-01-26T15:28:00.289Z,12.27
2023-01-26T15:30:33.065Z,11.57
2023-01-26T15:33:00.990Z,11.90
2023-01-26T15:35:32.819Z,10.73
2023-01-26T15:38:11.774Z,11.85
2023-01-26T15:40:39.420Z,12.00
2023-01-26T15:43:15.560Z,12.35
2023-01-26T15:45:53.009Z,12.45
2023-01-26T15:48:20.870Z,12.32
2023-01-26T15:50:48.669Z,11.90
2023-01-26T15:53:17.415Z,12.27
2023-01-26T15:55:44.998Z,12.40
2023-01-26T15:58:12.242Z,11.48
2023-01-26T16:01:04.733Z,11.63
2023-01-26T16:03:31.723Z,10.52
2023-01-26T16:05:58.707Z,11.15
2023-01-26T16:08:25.689Z,10.85
2023-01-26T16:10:59.715Z,11.13
2023-01-26T16:13:26.966Z,11.25
2023-01-26T16:15:55.054Z,11.13
2023-01-26T16:18:22.228Z,11.32
2023-01-26T16:20:50.371Z,11.98
2023-01-26T16:23:23.930Z,12.23
2023-01-26T16:25:51.436Z,12.40
2023-01-26T16:28:19.424Z,11.70
2023-01-26T16:30:48.341Z,12.27
2023-01-26T16:33:24.887Z,12.90
2023-01-26T16:35:52.019Z,12.02
2023-01-26T16:38:19.282Z,12.27
2023-01-26T16:40:48.795Z,13.75
2023-01-26T16:43:23.841Z,12.55
2023-01-26T16:45:52.656Z,12.55
2023-01-26T16:48:19.849Z,13.50
2023-01-26T16:50:47.331Z,12.73
2023-01-26T16:53:30.808Z,13.43
2023-01-26T16:55:57.816Z,13.55
2023-01-26T16:58:28.198Z,13.05
2023-01-26T17:00:55.763Z,14.52
2023-01-26T17:03:23.527Z,14.30
2023-01-26T17:05:53.489Z,14.00
2023-01-26T17:08:20.558Z,13.70
2023-01-26T17:11:01.161Z,14.40
2023-01-26T17:13:29.258Z,13.65
2023-01-26T17:15:57.873Z,14.30
2023-01-26T17:18:25.783Z,14.57
2023-01-26T17:20:52.843Z,14.80
2023-01-26T17:23:33.645Z,14.63
2023-01-26T17:26:01.039Z,14.07
2023-01-26T17:28:28.818Z,15.65
2023-01-26T17:30:56.210Z,15.15
2023-01-26T17:33:23.316Z,14.70
2023-01-26T17:35:58.556Z,14.77
2023-01-26T17:38:25.494Z,14.55
2023-01-26T17:40:57.039Z,14.57
2023-01-26T17:43:24.418Z,14.63
2023-01-26T17:45:51.557Z,13.00
2023-01-26T17:48:18.714Z,13.48
2023-01-26T17:50:50.086Z,13.07
2023-01-26T17:53:17.691Z,13.20
2023-01-26T17:55:45.022Z,10.65
2023-01-26T17:58:12.219Z,12.20
2023-01-26T18:00:40.215Z,11.23
2023-01-26T18:03:07.533Z,10.63
2023-01-26T18:05:34.668Z,10.93
2023-01-26T18:08:01.635Z,11.88
2023-01-26T18:10:31.414Z,9.63
2023-01-26T18:12:58.689Z,11.65
2023-01-26T18:15:25.954Z,10.98
2023-01-26T18:17:53.121Z,11.82
2023-01-26T18:20:20.458Z,11.50
2023-01-26T18:22:53.851Z,10.73
2023-01-26T18:25:21.619Z,10.40
2023-01-26T18:27:48.786Z,11.60
2023-01-26T18:30:16.095Z,11.40
2023-01-26T18:32:43.166Z,11.25
2023-01-26T18:35:11.081Z,11.00
2023-01-26T18:37:38.408Z,11.65
2023-01-26T18:40:08.068Z,11.48
2023-01-26T18:42:35.100Z,12.43
2023-01-26T18:45:02.842Z,11.07
2023-01-26T18:47:31.676Z,11.07
2023-01-26T18:49:59.129Z,11.10
2023-01-26T18:52:26.328Z,10.60
2023-01-26T18:54:53.321Z,9.35
2023-01-26T18:57:20.298Z,10.90
2023-01-26T18:59:47.513Z,11.88
2023-01-26T19:02:15.104Z,11.25
2023-01-26T19:04:42.585Z,11.50
2023-01-26T19:07:10.550Z,11.75
2023-01-26T19:09:37.932Z,10.63
2023-01-26T19:12:06.325Z,9.63
2023-01-26T19:14:33.460Z,11.30
2023-01-26T19:17:00.644Z,10.10
2023-01-26T19:19:29.396Z,10.93
2023-01-26T19:21:56.396Z,11.20
2023-01-26T19:24:23.848Z,13.45
2023-01-26T19:26:50.934Z,13.63
2023-01-26T19:29:17.899Z,13.48
2023-01-26T19:31:44.926Z,14.07
2023-01-26T19:34:14.596Z,15.30
2023-01-26T19:36:41.874Z,14.38
2023-01-26T19:39:11.047Z,13.50
2023-01-26T19:41:39.184Z,15.02
2023-01-26T19:44:07.211Z,16.38
2023-01-26T19:46:34.290Z,15.85
2023-01-26T19:49:01.469Z,14.93
2023-01-26T19:51:29.457Z,15.32
2023-01-26T19:53:58.984Z,16.30
2023-01-26T19:56:31.397Z,14.98
2023-01-26T19:59:01.301Z,15.98
2023-01-26T20:01:29.755Z,16.38
2023-01-26T20:04:02.579Z,15.27
2023-01-26T20:06:31.473Z,17.58
2023-01-26T20:08:59.058Z,15.95
2023-01-26T20:11:29.072Z,16.38
2023-01-26T20:13:57.892Z,17.25
2023-01-26T20:16:25.230Z,15.68
2023-01-26T20:18:52.213Z,15.02
2023-01-26T20:21:19.375Z,15.35
2023-01-26T20:23:54.434Z,15.63
2023-01-26T20:26:23.637Z,14.77
2023-01-26T20:28:50.917Z,16.38
2023-01-26T20:31:21.757Z,16.25
2023-01-26T20:33:51.371Z,16.70
2023-01-26T20:36:21.158Z,17.88
2023-01-26T20:38:49.776Z,17.10
2023-01-26T20:41:20.312Z,17.55
2023-01-26T20:44:03.123Z,17.67
2023-01-26T20:46:33.593Z,17.83
2023-01-26T20:49:01.389Z,17.27
2023-01-26T20:51:33.767Z,16.23
2023-01-26T20:54:00.799Z,17.92
2023-01-26T20:56:27.994Z,17.55
2023-01-26T20:58:56.527Z,17.45
2023-01-26T21:01:24.193Z,12.40
2023-01-26T21:03:51.982Z,17.73
2023-01-26T21:06:21.045Z,17.00
2023-01-26T21:08:49.499Z,17.15
2023-01-26T21:11:17.744Z,17.93
2023-01-26T21:13:45.393Z,16.65
2023-01-26T21:16:17.188Z,17.50
2023-01-26T21:18:46.138Z,17.10
2023-01-26T21:21:17.800Z,14.27
2023-01-26T21:23:45.575Z,15.77
2023-01-26T21:26:15.288Z,16.02
2023-01-26T21:28:42.759Z,14.90
2023-01-26T21:31:14.846Z,14.40
2023-01-26T21:33:43.770Z,16.45
2023-01-26T21:36:15.956Z,14.68
2023-01-26T21:38:45.489Z,15.27
2023-01-26T21:41:33.956Z,14.52
2023-01-26T21:44:02.112Z,11.63
2023-01-26T21:46:30.134Z,15.65
2023-01-26T21:48:57.373Z,16.20
2023-01-26T21:51:44.067Z,15.95
2023-01-26T21:54:11.933Z,16.02
2023-01-26T21:56:39.271Z,16.70
2023-01-26T21:59:08.728Z,14.90
2023-01-26T22:04:07.788Z,15.27
2023-01-26T22:06:35.819Z,16.05
2023-01-26T22:09:04.483Z,17.58
2023-01-26T22:11:31.964Z,13.68
2023-01-26T22:13:59.503Z,17.83
2023-01-26T22:16:28.286Z,17.67
2023-01-26T22:18:55.926Z,12.30
2023-01-26T22:21:48.930Z,15.82
2023-01-26T22:24:18.180Z,16.45
2023-01-26T22:26:45.308Z,17.42
2023-01-26T22:29:13.286Z,15.65
2023-01-26T22:31:40.428Z,16.40
2023-01-26T22:34:07.547Z,16.58
2023-01-26T22:36:34.633Z,18.13
2023-01-26T22:39:01.776Z,15.73
2023-01-26T22:41:30.524Z,15.05
2023-01-26T22:43:59.872Z,17.60
2023-01-26T22:48:57.333Z,16.98
2023-01-26T22:51:37.539Z,16.52
2023-01-26T22:54:05.607Z,16.23
2023-01-26T22:56:32.710Z,15.13
2023-01-26T22:59:00.731Z,15.82
2023-01-26T23:01:32.936Z,16.80
2023-01-26T23:04:01.447Z,15.50
2023-01-26T23:06:29.062Z,15.70
2023-01-26T23:08:58.160Z,15.00
2023-01-26T23:11:27.705Z,15.55
2023-01-26T23:13:56.024Z,15.93
2023-01-26T23:16:24.273Z,10.55
2023-01-26T23:18:53.234Z,15.48
2023-01-26T23:21:20.698Z,16.13
2023-01-26T23:23:47.970Z,15.05
2023-01-26T23:26:15.022Z,15.98
2023-01-26T23:28:43.416Z,13.73
2023-01-26T23:31:12.436Z,14.43
2023-01-26T23:33:40.118Z,15.93
2023-01-26T23:36:08.678Z,15.32
2023-01-26T23:38:36.393Z,10.95
2023-01-26T23:41:05.551Z,15.15
2023-01-26T23:43:40.771Z,15.60
2023-01-26T23:46:09.451Z,15.25
2023-01-26T23:48:36.804Z,12.30
2023-01-26T23:51:09.646Z,14.70
2023-01-26T23:53:36.968Z,16.35
2023-01-26T23:56:07.558Z,16.08
2023-01-26T23:58:35.744Z,16.08
